createdAt,value
2022-07-29T00:01:45.885Z,60.84
2022-07-29T00:04:15.654Z,63.19
2022-07-29T00:06:45.128Z,57.95
2022-07-29T00:09:14.881Z,60.75
2022-07-29T00:11:44.103Z,59.48
2022-07-29T00:14:13.475Z,62.68
2022-07-29T00:16:43.176Z,62.76
2022-07-29T00:19:12.437Z,66.46
2022-07-29T00:21:42.408Z,64.10
2022-07-29T00:24:11.931Z,64.85
2022-07-29T00:26:43.708Z,62.99
2022-07-29T00:32:02.572Z,55.71
2022-07-29T00:34:50.500Z,55.45
2022-07-29T00:37:20.078Z,56.77
2022-07-29T00:39:50.507Z,54.29
2022-07-29T00:42:20.114Z,52.97
2022-07-29T00:44:49.559Z,55.17
2022-07-29T00:47:18.704Z,50.75
2022-07-29T00:49:48.086Z,53.21
2022-07-29T00:52:21.388Z,52.38
2022-07-29T00:54:51.665Z,51.74
2022-07-29T00:57:21.142Z,57.01
2022-07-29T00:59:50.165Z,54.20
2022-07-29T01:02:19.407Z,53.58
2022-07-29T01:04:48.538Z,56.62
2022-07-29T01:07:19.560Z,56.68
2022-07-29T01:09:49.213Z,57.77
2022-07-29T01:12:28.031Z,56.28
2022-07-29T01:14:58.653Z,56.32
2022-07-29T01:17:58.063Z,52.43
2022-07-29T01:20:48.073Z,53.20
2022-07-29T01:23:48.626Z,51.30
2022-07-29T01:26:56.265Z,52.07
2022-07-29T01:29:40.582Z,52.04
2022-07-29T01:32:28.302Z,53.42
2022-07-29T01:35:10.174Z,53.09
2022-07-29T01:40:44.694Z,51.54
2022-07-29T01:43:21.202Z,51.72
2022-07-29T01:46:05.002Z,53.49
2022-07-29T01:48:42.005Z,54.29
2022-07-29T01:51:21.599Z,53.31
2022-07-29T01:54:01.460Z,53.65
2022-07-29T01:56:35.589Z,53.81
2022-07-29T01:59:08.906Z,54.41
2022-07-29T02:01:42.874Z,56.19
2022-07-29T02:04:28.939Z,56.72
2022-07-29T02:07:07.247Z,54.95
2022-07-29T02:09:40.991Z,54.66
2022-07-29T02:12:12.074Z,53.71
2022-07-29T02:14:47.293Z,52.45
2022-07-29T02:17:25.005Z,53.55
2022-07-29T02:19:58.933Z,53.95
2022-07-29T02:22:31.875Z,55.88
2022-07-29T02:25:02.095Z,56.19
2022-07-29T02:27:37.007Z,56.83
2022-07-29T02:30:09.256Z,56.75
2022-07-29T02:32:40.251Z,56.47
2022-07-29T02:35:11.470Z,57.82
2022-07-29T02:37:43.506Z,58.22
2022-07-29T02:40:18.670Z,58.83
2022-07-29T02:42:49.759Z,59.95
2022-07-29T02:45:19.102Z,61.48
2022-07-29T02:47:51.729Z,61.47
2022-07-29T02:50:30.223Z,62.60
2022-07-29T02:53:14.975Z,62.74
2022-07-29T02:55:52.738Z,64.08
2022-07-29T02:58:51.785Z,64.27
2022-07-29T03:01:25.445Z,64.58
2022-07-29T03:03:57.241Z,66.40
2022-07-29T03:06:38.264Z,68.51
2022-07-29T03:09:13.909Z,69.11
2022-07-29T03:11:50.128Z,71.82
2022-07-29T03:14:21.761Z,71.77
2022-07-29T03:16:52.472Z,72.29
2022-07-29T03:19:22.470Z,73.89
2022-07-29T03:21:51.822Z,73.84
2022-07-29T03:24:37.740Z,74.93
2022-07-29T03:27:10.525Z,75.46
2022-07-29T03:29:40.105Z,77.90
2022-07-29T03:32:14.133Z,80.03
2022-07-29T03:34:46.228Z,82.81
2022-07-29T03:37:15.502Z,84.70
2022-07-29T03:39:46.613Z,86.78
2022-07-29T03:42:21.769Z,88.64
2022-07-29T03:44:54.010Z,91.64
2022-07-29T03:47:49.616Z,97.41
2022-07-29T03:50:18.255Z,100.00
2022-07-29T03:52:48.850Z,100.00
2022-07-29T03:55:19.302Z,100.00
2022-07-29T03:57:50.190Z,100.00
2022-07-29T04:00:19.965Z,100.00
2022-07-29T04:02:52.085Z,100.00
2022-07-29T04:05:22.033Z,100.00
2022-07-29T04:07:51.582Z,100.00
2022-07-29T04:10:28.298Z,100.00
2022-07-29T04:13:02.263Z,100.00
2022-07-29T04:15:32.046Z,100.00
2022-07-29T04:18:01.861Z,100.00
2022-07-29T04:20:31.058Z,100.00
2022-07-29T04:23:01.088Z,100.00
2022-07-29T04:25:30.316Z,100.00
2022-07-29T04:28:03.062Z,100.00
2022-07-29T04:30:35.239Z,100.00
2022-07-29T04:33:06.621Z,100.00
2022-07-29T04:35:48.187Z,100.00
2022-07-29T04:38:22.172Z,100.00
2022-07-29T04:40:51.262Z,100.00
2022-07-29T04:43:22.481Z,100.00
2022-07-29T04:45:52.588Z,100.00
2022-07-29T04:48:26.695Z,100.00
2022-07-29T04:50:58.630Z,100.00
2022-07-29T04:53:28.508Z,100.00
2022-07-29T04:55:57.732Z,100.00
2022-07-29T04:58:26.908Z,100.00
2022-07-29T05:00:56.112Z,100.00
2022-07-29T05:03:25.408Z,100.00
2022-07-29T05:05:55.011Z,100.00
2022-07-29T05:08:24.333Z,100.00
2022-07-29T05:10:53.450Z,100.00
2022-07-29T05:13:22.735Z,100.00
2022-07-29T05:15:52.072Z,100.00
2022-07-29T05:18:21.414Z,100.00
2022-07-29T05:20:55.431Z,100.00
2022-07-29T05:23:24.611Z,100.00
2022-07-29T05:25:53.709Z,100.00
2022-07-29T05:28:23.263Z,100.00
2022-07-29T05:30:52.824Z,100.00
2022-07-29T05:33:35.834Z,100.00
2022-07-29T05:36:11.969Z,100.00
2022-07-29T05:38:43.665Z,100.00
2022-07-29T05:41:13.495Z,100.00
2022-07-29T05:43:42.736Z,100.00
2022-07-29T05:46:11.955Z,100.00
2022-07-29T05:48:41.582Z,100.00
2022-07-29T05:51:10.692Z,100.00
2022-07-29T05:53:40.006Z,100.00
2022-07-29T05:56:09.685Z,100.00
2022-07-29T05:58:38.913Z,100.00
2022-07-29T06:01:08.368Z,100.00
2022-07-29T06:03:39.583Z,100.00
2022-07-29T06:06:09.267Z,100.00
2022-07-29T06:08:39.236Z,100.00
2022-07-29T06:11:10.320Z,100.00
2022-07-29T06:13:40.446Z,100.00
2022-07-29T06:16:09.699Z,100.00
2022-07-29T06:18:45.933Z,100.00
2022-07-29T06:21:15.268Z,100.00
2022-07-29T06:23:44.385Z,100.00
2022-07-29T06:26:13.669Z,100.00
2022-07-29T06:28:43.047Z,100.00
2022-07-29T06:31:12.407Z,100.00
2022-07-29T06:33:41.757Z,100.00
2022-07-29T06:36:11.064Z,100.00
2022-07-29T06:38:47.533Z,100.00
2022-07-29T06:41:19.883Z,100.00
2022-07-29T06:43:52.402Z,100.00
2022-07-29T06:46:24.629Z,100.00
2022-07-29T06:48:54.069Z,100.00
2022-07-29T06:51:24.062Z,100.00
2022-07-29T06:53:59.564Z,100.00
2022-07-29T06:56:43.658Z,100.00
2022-07-29T06:59:14.495Z,100.00
2022-07-29T07:01:45.519Z,100.00
2022-07-29T07:04:15.361Z,100.00
2022-07-29T07:06:44.798Z,100.00
2022-07-29T07:09:13.894Z,100.00
2022-07-29T07:11:43.186Z,100.00
2022-07-29T07:14:12.201Z,100.00
2022-07-29T07:16:41.492Z,100.00
2022-07-29T07:19:10.662Z,100.00
2022-07-29T07:21:39.783Z,100.00
2022-07-29T07:24:09.171Z,100.00
2022-07-29T07:26:38.550Z,100.00
2022-07-29T07:29:08.219Z,100.00
2022-07-29T07:31:38.884Z,100.00
2022-07-29T07:34:10.576Z,100.00
2022-07-29T07:36:40.015Z,100.00
2022-07-29T07:39:13.110Z,100.00
2022-07-29T07:41:42.324Z,100.00
2022-07-29T07:44:16.020Z,100.00
2022-07-29T07:46:46.745Z,100.00
2022-07-29T07:49:16.059Z,100.00
2022-07-29T07:51:50.713Z,100.00
2022-07-29T07:54:21.010Z,100.00
2022-07-29T07:56:53.519Z,100.00
2022-07-29T07:59:22.679Z,100.00
2022-07-29T08:01:56.345Z,100.00
2022-07-29T08:04:28.643Z,100.00
2022-07-29T08:06:59.898Z,100.00
2022-07-29T08:09:30.790Z,100.00
2022-07-29T08:12:01.187Z,100.00
2022-07-29T08:14:30.830Z,100.00
2022-07-29T08:17:00.252Z,100.00
2022-07-29T08:19:29.481Z,100.00
2022-07-29T08:21:58.543Z,100.00
2022-07-29T08:24:45.908Z,100.00
2022-07-29T08:27:42.030Z,100.00
2022-07-29T08:30:06.324Z,100.00
2022-07-29T08:33:03.398Z,100.00
2022-07-29T08:35:25.980Z,100.00
2022-07-29T08:37:55.873Z,100.00
2022-07-29T08:40:31.884Z,100.00
2022-07-29T08:43:11.444Z,100.00
2022-07-29T08:45:52.101Z,100.00
2022-07-29T08:48:23.620Z,100.00
2022-07-29T08:50:57.645Z,100.00
2022-07-29T08:53:28.979Z,100.00
2022-07-29T08:55:59.172Z,100.00
2022-07-29T08:58:36.944Z,100.00
2022-07-29T09:01:12.494Z,100.00
2022-07-29T09:03:45.840Z,100.00
2022-07-29T09:06:21.690Z,100.00
2022-07-29T09:08:51.142Z,100.00
2022-07-29T09:11:20.395Z,100.00
2022-07-29T09:13:51.475Z,100.00
2022-07-29T09:16:37.459Z,100.00
2022-07-29T09:19:33.225Z,100.00
2022-07-29T09:22:04.054Z,100.00
2022-07-29T09:24:40.858Z,100.00
2022-07-29T09:27:24.290Z,100.00
2022-07-29T09:30:03.337Z,100.00
2022-07-29T09:32:34.837Z,100.00
2022-07-29T09:35:21.729Z,100.00
2022-07-29T09:37:50.785Z,100.00
2022-07-29T09:40:27.515Z,100.00
2022-07-29T09:42:59.035Z,100.00
2022-07-29T09:45:36.040Z,100.00
2022-07-29T09:48:24.852Z,100.00
2022-07-29T09:50:54.466Z,100.00
2022-07-29T09:53:35.720Z,100.00
2022-07-29T09:56:06.102Z,100.00
2022-07-29T09:58:36.446Z,100.00
2022-07-29T10:01:05.874Z,100.00
2022-07-29T10:03:52.175Z,100.00
2022-07-29T10:06:21.503Z,100.00
2022-07-29T10:08:51.652Z,100.00
2022-07-29T10:11:21.851Z,100.00
2022-07-29T10:13:51.071Z,100.00
2022-07-29T10:16:20.156Z,100.00
2022-07-29T10:18:49.318Z,100.00
2022-07-29T10:21:22.442Z,100.00
2022-07-29T10:24:07.085Z,100.00
2022-07-29T10:26:45.000Z,100.00
2022-07-29T10:29:14.640Z,100.00
2022-07-29T10:32:31.115Z,100.00
2022-07-29T10:35:22.018Z,100.00
2022-07-29T10:38:26.162Z,100.00
2022-07-29T10:41:29.010Z,100.00
2022-07-29T10:44:25.476Z,100.00
2022-07-29T10:46:55.382Z,100.00
2022-07-29T10:49:30.704Z,100.00
2022-07-29T10:52:05.767Z,100.00
2022-07-29T10:54:42.305Z,100.00
2022-07-29T10:57:25.994Z,100.00
2022-07-29T11:00:17.008Z,100.00
2022-07-29T11:02:50.610Z,100.00
2022-07-29T11:05:23.135Z,100.00
2022-07-29T11:08:19.536Z,100.00
2022-07-29T11:10:55.288Z,100.00
2022-07-29T11:13:48.959Z,100.00
2022-07-29T11:16:21.256Z,100.00
2022-07-29T11:19:30.706Z,100.00
2022-07-29T11:22:00.461Z,100.00
2022-07-29T11:24:35.102Z,100.00
2022-07-29T11:27:20.058Z,100.00
2022-07-29T11:29:58.477Z,100.00
2022-07-29T11:32:37.163Z,100.00
2022-07-29T11:35:37.144Z,100.00
2022-07-29T11:38:29.354Z,100.00
2022-07-29T11:41:20.857Z,100.00
2022-07-29T11:43:53.137Z,100.00
2022-07-29T11:46:44.078Z,100.00
2022-07-29T11:52:05.513Z,100.00
2022-07-29T11:54:51.917Z,100.00
2022-07-29T12:00:28.344Z,100.00
2022-07-29T12:02:59.432Z,100.00
2022-07-29T12:05:48.549Z,100.00
2022-07-29T12:07:02.108Z,100.00
2022-07-29T12:08:23.771Z,100.00
2022-07-29T12:10:53.695Z,100.00
2022-07-29T12:13:37.507Z,100.00
2022-07-29T12:16:07.486Z,100.00
2022-07-29T12:18:36.577Z,100.00
2022-07-29T12:21:06.011Z,100.00
2022-07-29T12:23:35.534Z,100.00
2022-07-29T12:26:10.557Z,100.00
2022-07-29T12:28:41.588Z,100.00
2022-07-29T12:31:42.329Z,100.00
2022-07-29T12:34:08.882Z,100.00
2022-07-29T12:36:39.827Z,100.00
2022-07-29T12:39:09.056Z,100.00
2022-07-29T12:41:38.391Z,100.00
2022-07-29T12:44:07.496Z,100.00
2022-07-29T12:46:36.710Z,100.00
2022-07-29T12:49:06.417Z,100.00
2022-07-29T12:51:40.078Z,100.00
2022-07-29T12:54:12.109Z,100.00
2022-07-29T12:56:43.961Z,100.00
2022-07-29T12:59:23.992Z,100.00
2022-07-29T13:01:54.760Z,100.00
2022-07-29T13:04:29.803Z,100.00
2022-07-29T13:07:10.493Z,100.00
2022-07-29T13:09:45.373Z,100.00
2022-07-29T13:12:15.950Z,100.00
2022-07-29T13:14:47.960Z,100.00
2022-07-29T13:17:19.693Z,100.00
2022-07-29T13:19:50.214Z,100.00
2022-07-29T13:22:25.729Z,100.00
2022-07-29T13:25:05.841Z,100.00
2022-07-29T13:27:41.471Z,100.00
2022-07-29T13:30:12.479Z,100.00
2022-07-29T13:32:41.623Z,100.00
2022-07-29T13:35:11.785Z,100.00
2022-07-29T13:37:42.167Z,100.00
2022-07-29T13:40:12.480Z,100.00
2022-07-29T13:42:44.756Z,100.00
2022-07-29T13:45:15.013Z,100.00
2022-07-29T13:47:49.291Z,100.00
2022-07-29T13:50:18.684Z,100.00
2022-07-29T13:52:49.979Z,100.00
2022-07-29T13:55:19.318Z,100.00
2022-07-29T13:57:48.633Z,100.00
2022-07-29T14:00:18.241Z,100.00
2022-07-29T14:02:47.637Z,100.00
2022-07-29T14:05:19.075Z,100.00
2022-07-29T14:07:48.200Z,100.00
2022-07-29T14:10:20.058Z,100.00
2022-07-29T14:12:49.528Z,100.00
2022-07-29T14:15:19.144Z,100.00
2022-07-29T14:17:48.162Z,100.00
2022-07-29T14:20:17.541Z,100.00
2022-07-29T14:22:46.643Z,100.00
2022-07-29T14:25:16.629Z,100.00
2022-07-29T14:27:46.022Z,100.00
2022-07-29T14:30:15.293Z,100.00
2022-07-29T14:32:44.280Z,100.00
2022-07-29T14:35:13.431Z,100.00
2022-07-29T14:37:44.361Z,100.00
2022-07-29T14:40:13.685Z,100.00
2022-07-29T14:42:43.080Z,100.00
2022-07-29T14:45:12.543Z,100.00
2022-07-29T14:47:41.615Z,100.00
2022-07-29T14:50:11.454Z,100.00
2022-07-29T14:52:40.602Z,100.00
2022-07-29T14:55:19.556Z,100.00
2022-07-29T14:57:50.038Z,100.00
2022-07-29T15:00:20.365Z,100.00
2022-07-29T15:03:02.063Z,100.00
2022-07-29T15:05:34.857Z,100.00
2022-07-29T15:08:04.337Z,100.00
2022-07-29T15:10:34.101Z,100.00
2022-07-29T15:13:03.195Z,100.00
2022-07-29T15:15:32.277Z,100.00
2022-07-29T15:18:01.612Z,100.00
2022-07-29T15:20:30.666Z,100.00
2022-07-29T15:22:59.852Z,100.00
2022-07-29T15:25:32.053Z,100.00
2022-07-29T15:28:04.683Z,100.00
2022-07-29T15:30:34.542Z,100.00
2022-07-29T15:33:06.869Z,100.00
2022-07-29T15:35:40.103Z,100.00
2022-07-29T15:38:10.215Z,100.00
2022-07-29T15:40:43.130Z,100.00
2022-07-29T15:43:12.247Z,100.00
2022-07-29T15:46:06.992Z,100.00
2022-07-29T15:48:41.611Z,100.00
2022-07-29T15:51:16.316Z,100.00
2022-07-29T15:53:53.686Z,100.00
2022-07-29T15:56:23.040Z,100.00
2022-07-29T15:59:07.294Z,100.00
2022-07-29T16:01:42.503Z,100.00
2022-07-29T16:04:23.473Z,100.00
2022-07-29T16:07:04.983Z,100.00
2022-07-29T16:09:36.727Z,100.00
2022-07-29T16:12:15.376Z,100.00
2022-07-29T16:14:52.113Z,100.00
2022-07-29T16:17:34.365Z,100.00
2022-07-29T16:20:18.385Z,100.00
2022-07-29T16:22:47.576Z,100.00
2022-07-29T16:25:16.633Z,100.00
2022-07-29T16:27:48.505Z,100.00
2022-07-29T16:30:17.695Z,100.00
2022-07-29T16:32:46.862Z,100.00
2022-07-29T16:36:00.031Z,100.00
2022-07-29T16:38:32.270Z,100.00
2022-07-29T16:41:01.434Z,100.00
2022-07-29T16:43:30.671Z,100.00
2022-07-29T16:45:59.869Z,100.00
2022-07-29T16:48:29.668Z,100.00
2022-07-29T16:50:59.693Z,100.00
2022-07-29T16:53:30.206Z,100.00
2022-07-29T16:56:01.663Z,100.00
2022-07-29T16:58:32.594Z,100.00
2022-07-29T17:01:01.827Z,100.00
2022-07-29T17:03:30.877Z,100.00
2022-07-29T17:05:59.924Z,100.00
2022-07-29T17:08:53.049Z,100.00
2022-07-29T17:11:23.159Z,100.00
2022-07-29T17:14:19.022Z,100.00
2022-07-29T17:17:01.396Z,100.00
2022-07-29T17:19:39.335Z,100.00
2022-07-29T17:22:15.514Z,100.00
2022-07-29T17:24:53.809Z,100.00
2022-07-29T17:27:22.935Z,100.00
2022-07-29T17:29:52.175Z,100.00
2022-07-29T17:32:21.249Z,100.00
2022-07-29T17:34:50.599Z,100.00
2022-07-29T17:37:20.048Z,100.00
2022-07-29T17:39:49.683Z,100.00
2022-07-29T17:42:18.769Z,100.00
2022-07-29T17:44:48.235Z,100.00
2022-07-29T17:47:17.391Z,100.00
2022-07-29T17:49:46.866Z,100.00
2022-07-29T17:52:17.189Z,100.00
2022-07-29T17:54:46.519Z,100.00
2022-07-29T17:57:15.566Z,100.00
2022-07-29T17:59:44.719Z,100.00
2022-07-29T18:02:15.193Z,100.00
2022-07-29T18:04:44.486Z,100.00
2022-07-29T18:07:13.667Z,100.00
2022-07-29T18:09:42.730Z,100.00
2022-07-29T18:12:11.747Z,100.00
2022-07-29T18:14:40.967Z,100.00
2022-07-29T18:17:10.045Z,100.00
2022-07-29T18:19:39.207Z,100.00
2022-07-29T18:22:09.230Z,100.00
2022-07-29T18:24:38.297Z,100.00
2022-07-29T18:27:07.607Z,100.00
2022-07-29T18:29:36.937Z,100.00
2022-07-29T18:32:06.643Z,100.00
2022-07-29T18:34:35.796Z,100.00
2022-07-29T18:37:04.949Z,100.00
2022-07-29T18:39:34.283Z,100.00
2022-07-29T18:42:04.052Z,100.00
2022-07-29T18:44:34.036Z,100.00
2022-07-29T18:47:13.088Z,100.00
2022-07-29T18:49:42.466Z,100.00
2022-07-29T18:52:11.889Z,100.00
2022-07-29T18:54:41.013Z,100.00
2022-07-29T18:57:55.456Z,100.00
2022-07-29T18:59:59.561Z,100.00
2022-07-29T19:02:29.294Z,100.00
2022-07-29T19:04:58.806Z,100.00
2022-07-29T19:07:27.933Z,100.00
2022-07-29T19:09:57.384Z,100.00
2022-07-29T19:12:26.492Z,100.00
2022-07-29T19:14:55.956Z,100.00
2022-07-29T19:17:24.966Z,100.00
2022-07-29T19:19:54.764Z,100.00
2022-07-29T19:22:24.157Z,100.00
2022-07-29T19:24:54.134Z,97.75
2022-07-29T19:27:23.309Z,96.86
2022-07-29T19:29:55.804Z,100.00
2022-07-29T19:32:28.523Z,100.00
2022-07-29T19:35:15.868Z,94.57
2022-07-29T19:37:45.005Z,97.41
2022-07-29T19:40:14.049Z,94.56
2022-07-29T19:42:44.799Z,91.45
2022-07-29T19:45:14.297Z,87.47
2022-07-29T19:47:43.394Z,92.82
2022-07-29T19:50:12.777Z,86.24
2022-07-29T19:52:42.064Z,88.01
2022-07-29T19:55:11.497Z,91.55
2022-07-29T19:57:41.980Z,96.46
2022-07-29T20:00:13.003Z,83.40
2022-07-29T20:02:43.829Z,81.83
2022-07-29T20:05:13.808Z,86.06
2022-07-29T20:07:42.881Z,83.18
2022-07-29T20:10:12.343Z,81.85
2022-07-29T20:12:43.781Z,83.29
2022-07-29T20:15:16.418Z,77.48
2022-07-29T20:17:46.539Z,77.57
2022-07-29T20:20:16.058Z,79.06
2022-07-29T20:22:45.666Z,75.98
2022-07-29T20:25:16.269Z,77.10
2022-07-29T20:27:45.544Z,75.50
2022-07-29T20:30:15.217Z,77.34
2022-07-29T20:32:44.427Z,77.71
2022-07-29T20:35:14.384Z,76.56
2022-07-29T20:37:52.079Z,74.91
2022-07-29T20:40:30.077Z,80.21
2022-07-29T20:42:59.895Z,75.56
2022-07-29T20:45:31.746Z,70.60
2022-07-29T20:48:01.344Z,68.92
2022-07-29T20:50:30.596Z,76.78
2022-07-29T20:53:00.272Z,77.39
2022-07-29T20:55:30.780Z,70.01
2022-07-29T20:58:00.252Z,68.57
2022-07-29T21:00:30.117Z,70.58
2022-07-29T21:02:59.494Z,71.93
2022-07-29T21:05:28.626Z,72.10
2022-07-29T21:08:00.034Z,70.31
2022-07-29T21:10:30.314Z,67.73
2022-07-29T21:12:59.627Z,63.69
2022-07-29T21:15:30.153Z,63.04
2022-07-29T21:18:03.832Z,74.68
2022-07-29T21:20:33.093Z,69.37
2022-07-29T21:23:02.251Z,64.94
2022-07-29T21:25:31.350Z,64.34
2022-07-29T21:28:19.432Z,61.82
2022-07-29T21:30:48.483Z,62.06
2022-07-29T21:33:17.694Z,62.88
2022-07-29T21:36:14.989Z,74.93
2022-07-29T21:38:37.430Z,83.19
2022-07-29T21:41:07.727Z,64.91
2022-07-29T21:43:36.812Z,68.99
2022-07-29T21:46:11.244Z,68.82
2022-07-29T21:48:44.331Z,71.50
2022-07-29T21:51:14.204Z,66.75
2022-07-29T21:53:43.257Z,63.34
2022-07-29T21:56:14.911Z,64.90
2022-07-29T21:58:44.388Z,66.41
2022-07-29T22:01:13.756Z,65.59
2022-07-29T22:03:48.377Z,62.19
2022-07-29T22:06:18.380Z,59.83
2022-07-29T22:08:49.324Z,60.86
2022-07-29T22:11:20.280Z,60.10
2022-07-29T22:13:49.470Z,58.74
2022-07-29T22:16:18.641Z,57.23
2022-07-29T22:18:50.687Z,58.69
2022-07-29T22:21:20.585Z,59.13
2022-07-29T22:23:49.644Z,63.06
2022-07-29T22:26:18.767Z,61.30
2022-07-29T22:28:47.940Z,59.65
2022-07-29T22:31:21.600Z,61.98
2022-07-29T22:33:54.090Z,56.83
2022-07-29T22:36:24.961Z,57.87
2022-07-29T22:38:54.177Z,56.89
2022-07-29T22:41:23.241Z,57.14
2022-07-29T22:43:52.920Z,55.31
2022-07-29T22:46:23.069Z,53.94
2022-07-29T22:48:52.261Z,54.08
2022-07-29T22:51:21.288Z,53.36
2022-07-29T22:53:51.158Z,53.05
2022-07-29T22:56:21.606Z,54.55
2022-07-29T22:58:51.196Z,55.91
2022-07-29T23:01:38.048Z,57.59
2022-07-29T23:04:08.282Z,58.89
2022-07-29T23:06:37.825Z,57.46
2022-07-29T23:09:07.133Z,59.00
2022-07-29T23:11:36.227Z,53.29
2022-07-29T23:14:05.342Z,53.59
2022-07-29T23:16:38.830Z,54.12
2022-07-29T23:19:08.124Z,61.99
2022-07-29T23:21:37.156Z,57.32
2022-07-29T23:24:06.427Z,58.84
2022-07-29T23:26:37.590Z,57.38
2022-07-29T23:29:06.684Z,57.20
2022-07-29T23:31:36.793Z,58.87
2022-07-29T23:34:11.009Z,66.60
2022-07-29T23:36:40.517Z,62.90
2022-07-29T23:39:13.963Z,54.11
2022-07-29T23:41:43.587Z,51.07
2022-07-29T23:44:13.146Z,51.58
2022-07-29T23:46:42.268Z,52.00
2022-07-29T23:49:11.521Z,56.43
2022-07-29T23:51:40.577Z,54.60
2022-07-29T23:54:09.749Z,63.38
2022-07-29T23:56:39.237Z,58.52
2022-07-29T23:59:08.753Z,54.89
